sensor_id;sensor_type;location;lat;lon;timestamp;P1;durP1;ratioP1;P2;durP2;ratioP2
5801;SDS011;2927;49.366;8.530;2023-08-20T00:00:10;4.33;;;3.90;;
5801;SDS011;2927;49.366;8.530;2023-08-20T00:02:37;5.00;;;4.30;;
5801;SDS011;2927;49.366;8.530;2023-08-20T00:05:04;5.20;;;4.20;;
5801;SDS011;2927;49.366;8.530;2023-08-20T00:07:33;8.73;;;4.33;;
5801;SDS011;2927;49.366;8.530;2023-08-20T00:09:58;7.43;;;4.23;;
5801;SDS011;2927;49.366;8.530;2023-08-20T00:12:24;4.40;;;4.00;;
5801;SDS011;2927;49.366;8.530;2023-08-20T00:15:01;3.97;;;3.57;;
5801;SDS011;2927;49.366;8.530;2023-08-20T00:17:32;3.87;;;3.47;;
5801;SDS011;2927;49.366;8.530;2023-08-20T00:19:58;5.43;;;4.30;;
5801;SDS011;2927;49.366;8.530;2023-08-20T00:22:24;4.33;;;3.93;;
5801;SDS011;2927;49.366;8.530;2023-08-20T00:24:51;4.80;;;3.67;;
5801;SDS011;2927;49.366;8.530;2023-08-20T00:27:18;6.30;;;3.93;;
5801;SDS011;2927;49.366;8.530;2023-08-20T00:29:43;5.40;;;3.30;;
5801;SDS011;2927;49.366;8.530;2023-08-20T00:32:09;5.77;;;3.80;;
5801;SDS011;2927;49.366;8.530;2023-08-20T00:34:35;4.10;;;3.70;;
5801;SDS011;2927;49.366;8.530;2023-08-20T00:37:00;4.30;;;3.90;;
5801;SDS011;2927;49.366;8.530;2023-08-20T00:39:27;6.30;;;3.47;;
5801;SDS011;2927;49.366;8.530;2023-08-20T00:41:53;4.50;;;3.10;;
5801;SDS011;2927;49.366;8.530;2023-08-20T00:44:19;4.10;;;3.70;;
5801;SDS011;2927;49.366;8.530;2023-08-20T00:46:44;5.23;;;4.17;;
5801;SDS011;2927;49.366;8.530;2023-08-20T00:49:10;5.83;;;4.60;;
5801;SDS011;2927;49.366;8.530;2023-08-20T00:51:36;6.60;;;4.80;;
5801;SDS011;2927;49.366;8.530;2023-08-20T00:54:02;4.20;;;3.57;;
5801;SDS011;2927;49.366;8.530;2023-08-20T00:56:28;9.43;;;4.70;;
5801;SDS011;2927;49.366;8.530;2023-08-20T00:58:54;3.80;;;3.37;;
5801;SDS011;2927;49.366;8.530;2023-08-20T01:01:21;7.60;;;4.30;;
5801;SDS011;2927;49.366;8.530;2023-08-20T01:03:47;6.13;;;4.03;;
5801;SDS011;2927;49.366;8.530;2023-08-20T01:09:22;6.77;;;4.00;;
5801;SDS011;2927;49.366;8.530;2023-08-20T01:12:02;5.90;;;4.17;;
5801;SDS011;2927;49.366;8.530;2023-08-20T01:14:28;6.73;;;4.20;;
5801;SDS011;2927;49.366;8.530;2023-08-20T01:16:54;6.13;;;4.43;;
5801;SDS011;2927;49.366;8.530;2023-08-20T01:19:21;5.03;;;4.10;;
5801;SDS011;2927;49.366;8.530;2023-08-20T01:27:19;6.60;;;4.90;;
5801;SDS011;2927;49.366;8.530;2023-08-20T01:30:07;6.77;;;4.80;;
5801;SDS011;2927;49.366;8.530;2023-08-20T01:32:34;5.80;;;4.23;;
5801;SDS011;2927;49.366;8.530;2023-08-20T01:35:02;4.97;;;4.47;;
5801;SDS011;2927;49.366;8.530;2023-08-20T01:37:28;5.73;;;5.13;;
5801;SDS011;2927;49.366;8.530;2023-08-20T01:39:53;6.10;;;4.20;;
5801;SDS011;2927;49.366;8.530;2023-08-20T01:42:19;8.80;;;4.67;;
5801;SDS011;2927;49.366;8.530;2023-08-20T01:44:44;5.10;;;4.30;;
5801;SDS011;2927;49.366;8.530;2023-08-20T01:47:10;5.27;;;4.70;;
5801;SDS011;2927;49.366;8.530;2023-08-20T01:49:35;9.30;;;4.30;;
5801;SDS011;2927;49.366;8.530;2023-08-20T01:52:01;4.93;;;4.40;;
5801;SDS011;2927;49.366;8.530;2023-08-20T01:54:27;7.27;;;5.33;;
5801;SDS011;2927;49.366;8.530;2023-08-20T01:56:53;4.27;;;3.90;;
5801;SDS011;2927;49.366;8.530;2023-08-20T01:59:21;4.77;;;4.37;;
5801;SDS011;2927;49.366;8.530;2023-08-20T02:01:47;4.67;;;4.23;;
5801;SDS011;2927;49.366;8.530;2023-08-20T02:04:12;5.77;;;4.33;;
5801;SDS011;2927;49.366;8.530;2023-08-20T02:06:38;7.00;;;4.30;;
5801;SDS011;2927;49.366;8.530;2023-08-20T02:09:03;4.77;;;4.33;;
5801;SDS011;2927;49.366;8.530;2023-08-20T02:11:29;7.03;;;4.70;;
5801;SDS011;2927;49.366;8.530;2023-08-20T02:13:57;8.40;;;4.83;;
5801;SDS011;2927;49.366;8.530;2023-08-20T02:16:23;5.00;;;4.50;;
5801;SDS011;2927;49.366;8.530;2023-08-20T02:18:49;7.93;;;4.30;;
5801;SDS011;2927;49.366;8.530;2023-08-20T02:21:14;6.33;;;4.80;;
5801;SDS011;2927;49.366;8.530;2023-08-20T02:23:40;5.70;;;4.70;;
5801;SDS011;2927;49.366;8.530;2023-08-20T02:26:05;6.33;;;5.50;;
5801;SDS011;2927;49.366;8.530;2023-08-20T02:28:31;4.63;;;4.23;;
5801;SDS011;2927;49.366;8.530;2023-08-20T02:30:56;5.83;;;4.70;;
5801;SDS011;2927;49.366;8.530;2023-08-20T02:33:22;6.47;;;4.10;;
5801;SDS011;2927;49.366;8.530;2023-08-20T02:35:48;6.97;;;4.80;;
5801;SDS011;2927;49.366;8.530;2023-08-20T02:38:13;8.80;;;4.30;;
5801;SDS011;2927;49.366;8.530;2023-08-20T02:40:43;8.60;;;4.23;;
5801;SDS011;2927;49.366;8.530;2023-08-20T02:43:09;5.50;;;5.00;;
5801;SDS011;2927;49.366;8.530;2023-08-20T02:45:41;5.63;;;4.70;;
5801;SDS011;2927;49.366;8.530;2023-08-20T02:48:07;8.03;;;4.30;;
5801;SDS011;2927;49.366;8.530;2023-08-20T02:50:33;11.80;;;5.20;;
5801;SDS011;2927;49.366;8.530;2023-08-20T02:52:59;7.23;;;4.60;;
5801;SDS011;2927;49.366;8.530;2023-08-20T02:55:24;6.30;;;4.40;;
5801;SDS011;2927;49.366;8.530;2023-08-20T02:57:50;4.90;;;4.43;;
5801;SDS011;2927;49.366;8.530;2023-08-20T03:00:15;6.30;;;5.57;;
5801;SDS011;2927;49.366;8.530;2023-08-20T03:02:41;5.00;;;4.57;;
5801;SDS011;2927;49.366;8.530;2023-08-20T03:05:07;5.97;;;4.50;;
5801;SDS011;2927;49.366;8.530;2023-08-20T03:07:33;7.23;;;5.57;;
5801;SDS011;2927;49.366;8.530;2023-08-20T03:09:59;6.57;;;4.87;;
5801;SDS011;2927;49.366;8.530;2023-08-20T03:12:25;7.97;;;5.07;;
5801;SDS011;2927;49.366;8.530;2023-08-20T03:14:50;7.83;;;5.57;;
5801;SDS011;2927;49.366;8.530;2023-08-20T03:17:16;8.73;;;5.40;;
5801;SDS011;2927;49.366;8.530;2023-08-20T03:19:53;5.00;;;4.53;;
5801;SDS011;2927;49.366;8.530;2023-08-20T03:22:21;9.20;;;4.97;;
5801;SDS011;2927;49.366;8.530;2023-08-20T03:24:46;9.23;;;5.93;;
5801;SDS011;2927;49.366;8.530;2023-08-20T03:27:12;5.87;;;4.80;;
5801;SDS011;2927;49.366;8.530;2023-08-20T03:29:37;5.90;;;4.87;;
5801;SDS011;2927;49.366;8.530;2023-08-20T03:32:03;5.63;;;5.13;;
5801;SDS011;2927;49.366;8.530;2023-08-20T03:34:29;7.07;;;5.40;;
5801;SDS011;2927;49.366;8.530;2023-08-20T03:36:54;11.23;;;5.90;;
5801;SDS011;2927;49.366;8.530;2023-08-20T03:39:20;7.23;;;5.20;;
5801;SDS011;2927;49.366;8.530;2023-08-20T03:41:45;6.27;;;4.93;;
5801;SDS011;2927;49.366;8.530;2023-08-20T03:44:11;8.77;;;5.53;;
5801;SDS011;2927;49.366;8.530;2023-08-20T03:46:37;5.53;;;5.03;;
5801;SDS011;2927;49.366;8.530;2023-08-20T03:49:02;6.00;;;5.00;;
5801;SDS011;2927;49.366;8.530;2023-08-20T03:51:28;6.57;;;5.37;;
5801;SDS011;2927;49.366;8.530;2023-08-20T03:53:53;6.23;;;5.63;;
5801;SDS011;2927;49.366;8.530;2023-08-20T03:56:19;10.93;;;5.67;;
5801;SDS011;2927;49.366;8.530;2023-08-20T03:58:45;6.23;;;5.70;;
5801;SDS011;2927;49.366;8.530;2023-08-20T04:01:10;8.90;;;5.53;;
5801;SDS011;2927;49.366;8.530;2023-08-20T04:03:36;11.03;;;6.40;;
5801;SDS011;2927;49.366;8.530;2023-08-20T04:06:02;9.00;;;5.60;;
5801;SDS011;2927;49.366;8.530;2023-08-20T04:08:28;10.40;;;5.97;;
5801;SDS011;2927;49.366;8.530;2023-08-20T04:10:54;9.20;;;6.00;;
5801;SDS011;2927;49.366;8.530;2023-08-20T04:13:20;7.27;;;5.60;;
5801;SDS011;2927;49.366;8.530;2023-08-20T04:15:45;7.80;;;6.10;;
5801;SDS011;2927;49.366;8.530;2023-08-20T04:18:11;13.83;;;6.60;;
5801;SDS011;2927;49.366;8.530;2023-08-20T04:20:37;10.30;;;6.63;;
5801;SDS011;2927;49.366;8.530;2023-08-20T04:23:02;8.13;;;5.80;;
5801;SDS011;2927;49.366;8.530;2023-08-20T04:25:28;9.53;;;6.23;;
5801;SDS011;2927;49.366;8.530;2023-08-20T04:27:54;8.70;;;5.10;;
5801;SDS011;2927;49.366;8.530;2023-08-20T04:30:19;11.27;;;5.70;;
5801;SDS011;2927;49.366;8.530;2023-08-20T04:32:45;8.47;;;5.80;;
5801;SDS011;2927;49.366;8.530;2023-08-20T04:35:10;10.50;;;6.30;;
5801;SDS011;2927;49.366;8.530;2023-08-20T04:37:36;8.33;;;5.97;;
5801;SDS011;2927;49.366;8.530;2023-08-20T04:40:02;10.97;;;7.30;;
5801;SDS011;2927;49.366;8.530;2023-08-20T04:42:31;7.20;;;5.60;;
5801;SDS011;2927;49.366;8.530;2023-08-20T04:44:57;7.80;;;5.70;;
5801;SDS011;2927;49.366;8.530;2023-08-20T04:47:22;8.40;;;6.03;;
5801;SDS011;2927;49.366;8.530;2023-08-20T04:49:48;6.50;;;5.43;;
5801;SDS011;2927;49.366;8.530;2023-08-20T04:52:13;7.50;;;5.03;;
5801;SDS011;2927;49.366;8.530;2023-08-20T04:54:39;7.17;;;5.30;;
5801;SDS011;2927;49.366;8.530;2023-08-20T04:57:04;5.30;;;4.77;;
5801;SDS011;2927;49.366;8.530;2023-08-20T04:59:30;4.80;;;4.40;;
5801;SDS011;2927;49.366;8.530;2023-08-20T05:01:55;8.10;;;5.40;;
5801;SDS011;2927;49.366;8.530;2023-08-20T05:04:21;5.80;;;5.20;;
5801;SDS011;2927;49.366;8.530;2023-08-20T05:06:47;7.47;;;5.77;;
5801;SDS011;2927;49.366;8.530;2023-08-20T05:09:13;7.57;;;6.77;;
5801;SDS011;2927;49.366;8.530;2023-08-20T05:11:38;6.40;;;5.80;;
5801;SDS011;2927;49.366;8.530;2023-08-20T05:14:04;7.80;;;5.83;;
5801;SDS011;2927;49.366;8.530;2023-08-20T05:16:29;13.03;;;5.43;;
5801;SDS011;2927;49.366;8.530;2023-08-20T05:18:55;6.30;;;5.63;;
5801;SDS011;2927;49.366;8.530;2023-08-20T05:21:20;8.07;;;5.80;;
5801;SDS011;2927;49.366;8.530;2023-08-20T05:23:46;8.50;;;5.67;;
5801;SDS011;2927;49.366;8.530;2023-08-20T05:26:11;7.67;;;5.90;;
5801;SDS011;2927;49.366;8.530;2023-08-20T05:28:37;6.97;;;5.30;;
5801;SDS011;2927;49.366;8.530;2023-08-20T05:31:02;6.57;;;5.47;;
5801;SDS011;2927;49.366;8.530;2023-08-20T05:33:28;10.07;;;5.57;;
5801;SDS011;2927;49.366;8.530;2023-08-20T05:35:53;6.80;;;6.10;;
5801;SDS011;2927;49.366;8.530;2023-08-20T05:38:19;10.77;;;5.40;;
5801;SDS011;2927;49.366;8.530;2023-08-20T05:40:44;9.37;;;6.00;;
5801;SDS011;2927;49.366;8.530;2023-08-20T05:43:10;9.10;;;6.27;;
5801;SDS011;2927;49.366;8.530;2023-08-20T05:45:35;6.23;;;5.33;;
5801;SDS011;2927;49.366;8.530;2023-08-20T05:48:01;6.43;;;5.83;;
5801;SDS011;2927;49.366;8.530;2023-08-20T05:50:27;7.60;;;5.50;;
5801;SDS011;2927;49.366;8.530;2023-08-20T05:52:52;8.20;;;5.77;;
5801;SDS011;2927;49.366;8.530;2023-08-20T05:55:18;5.93;;;5.33;;
5801;SDS011;2927;49.366;8.530;2023-08-20T05:57:44;7.10;;;5.73;;
5801;SDS011;2927;49.366;8.530;2023-08-20T06:00:09;5.63;;;4.70;;
5801;SDS011;2927;49.366;8.530;2023-08-20T06:02:36;7.10;;;5.40;;
5801;SDS011;2927;49.366;8.530;2023-08-20T06:05:02;7.32;;;5.28;;
5801;SDS011;2927;49.366;8.530;2023-08-20T06:07:29;6.60;;;5.35;;
5801;SDS011;2927;49.366;8.530;2023-08-20T06:09:55;5.80;;;5.13;;
5801;SDS011;2927;49.366;8.530;2023-08-20T06:12:21;5.32;;;4.93;;
5801;SDS011;2927;49.366;8.530;2023-08-20T06:14:47;4.47;;;4.10;;
5801;SDS011;2927;49.366;8.530;2023-08-20T06:17:13;6.55;;;5.45;;
5801;SDS011;2927;49.366;8.530;2023-08-20T06:19:38;5.68;;;4.53;;
5801;SDS011;2927;49.366;8.530;2023-08-20T06:22:04;6.82;;;4.22;;
5801;SDS011;2927;49.366;8.530;2023-08-20T06:24:30;4.70;;;4.30;;
5801;SDS011;2927;49.366;8.530;2023-08-20T06:26:55;9.20;;;4.10;;
5801;SDS011;2927;49.366;8.530;2023-08-20T06:29:21;5.20;;;4.25;;
5801;SDS011;2927;49.366;8.530;2023-08-20T06:31:49;4.10;;;3.85;;
5801;SDS011;2927;49.366;8.530;2023-08-20T06:34:15;4.15;;;3.85;;
5801;SDS011;2927;49.366;8.530;2023-08-20T06:36:41;4.55;;;4.25;;
5801;SDS011;2927;49.366;8.530;2023-08-20T06:39:07;4.68;;;4.28;;
5801;SDS011;2927;49.366;8.530;2023-08-20T06:41:33;5.53;;;5.07;;
5801;SDS011;2927;49.366;8.530;2023-08-20T06:43:59;5.28;;;4.88;;
5801;SDS011;2927;49.366;8.530;2023-08-20T06:46:24;5.40;;;4.90;;
5801;SDS011;2927;49.366;8.530;2023-08-20T06:48:50;5.68;;;5.18;;
5801;SDS011;2927;49.366;8.530;2023-08-20T06:51:18;10.13;;;5.90;;
5801;SDS011;2927;49.366;8.530;2023-08-20T06:53:45;6.93;;;5.18;;
5801;SDS011;2927;49.366;8.530;2023-08-20T06:56:10;6.07;;;5.47;;
5801;SDS011;2927;49.366;8.530;2023-08-20T06:58:37;8.05;;;5.57;;
5801;SDS011;2927;49.366;8.530;2023-08-20T07:01:03;6.72;;;5.40;;
5801;SDS011;2927;49.366;8.530;2023-08-20T07:03:42;6.43;;;5.43;;
5801;SDS011;2927;49.366;8.530;2023-08-20T07:06:09;7.57;;;5.60;;
5801;SDS011;2927;49.366;8.530;2023-08-20T07:08:36;9.63;;;5.78;;
5801;SDS011;2927;49.366;8.530;2023-08-20T07:11:04;7.85;;;5.45;;
5801;SDS011;2927;49.366;8.530;2023-08-20T07:13:30;6.43;;;4.88;;
5801;SDS011;2927;49.366;8.530;2023-08-20T07:15:56;7.13;;;6.10;;
5801;SDS011;2927;49.366;8.530;2023-08-20T07:18:21;8.82;;;6.35;;
5801;SDS011;2927;49.366;8.530;2023-08-20T07:20:47;14.27;;;5.15;;
5801;SDS011;2927;49.366;8.530;2023-08-20T07:23:13;10.98;;;6.25;;
5801;SDS011;2927;49.366;8.530;2023-08-20T07:25:39;10.68;;;6.07;;
5801;SDS011;2927;49.366;8.530;2023-08-20T07:28:06;6.28;;;5.35;;
5801;SDS011;2927;49.366;8.530;2023-08-20T07:30:33;6.63;;;4.63;;
5801;SDS011;2927;49.366;8.530;2023-08-20T07:32:59;9.52;;;5.45;;
5801;SDS011;2927;49.366;8.530;2023-08-20T07:35:26;6.15;;;5.55;;
5801;SDS011;2927;49.366;8.530;2023-08-20T07:37:51;6.32;;;5.30;;
5801;SDS011;2927;49.366;8.530;2023-08-20T07:40:17;5.50;;;4.35;;
5801;SDS011;2927;49.366;8.530;2023-08-20T07:42:43;5.32;;;4.90;;
5801;SDS011;2927;49.366;8.530;2023-08-20T07:45:08;5.28;;;4.93;;
5801;SDS011;2927;49.366;8.530;2023-08-20T07:47:38;4.57;;;4.22;;
5801;SDS011;2927;49.366;8.530;2023-08-20T07:50:05;4.50;;;4.10;;
5801;SDS011;2927;49.366;8.530;2023-08-20T07:52:31;4.35;;;4.05;;
5801;SDS011;2927;49.366;8.530;2023-08-20T07:54:57;3.72;;;3.42;;
5801;SDS011;2927;49.366;8.530;2023-08-20T07:57:23;4.10;;;3.63;;
5801;SDS011;2927;49.366;8.530;2023-08-20T07:59:49;5.18;;;4.88;;
5801;SDS011;2927;49.366;8.530;2023-08-20T08:02:15;3.90;;;3.70;;
5801;SDS011;2927;49.366;8.530;2023-08-20T08:04:41;4.72;;;4.40;;
5801;SDS011;2927;49.366;8.530;2023-08-20T08:07:07;4.10;;;3.90;;
5801;SDS011;2927;49.366;8.530;2023-08-20T08:09:32;3.90;;;3.60;;
5801;SDS011;2927;49.366;8.530;2023-08-20T08:11:58;3.90;;;3.70;;
5801;SDS011;2927;49.366;8.530;2023-08-20T08:14:24;3.63;;;3.53;;
5801;SDS011;2927;49.366;8.530;2023-08-20T08:16:50;4.32;;;3.42;;
5801;SDS011;2927;49.366;8.530;2023-08-20T08:19:16;4.05;;;3.75;;
5801;SDS011;2927;49.366;8.530;2023-08-20T08:21:43;3.00;;;2.90;;
5801;SDS011;2927;49.366;8.530;2023-08-20T08:24:09;2.90;;;2.80;;
5801;SDS011;2927;49.366;8.530;2023-08-20T08:26:36;3.58;;;3.47;;
5801;SDS011;2927;49.366;8.530;2023-08-20T08:29:02;3.78;;;3.60;;
5801;SDS011;2927;49.366;8.530;2023-08-20T08:31:28;3.00;;;2.80;;
5801;SDS011;2927;49.366;8.530;2023-08-20T08:33:54;3.50;;;3.38;;
5801;SDS011;2927;49.366;8.530;2023-08-20T08:36:20;3.63;;;3.30;;
5801;SDS011;2927;49.366;8.530;2023-08-20T08:38:45;3.13;;;3.03;;
5801;SDS011;2927;49.366;8.530;2023-08-20T08:41:11;3.58;;;3.47;;
5801;SDS011;2927;49.366;8.530;2023-08-20T08:43:38;3.72;;;3.60;;
5801;SDS011;2927;49.366;8.530;2023-08-20T08:46:12;3.47;;;3.38;;
5801;SDS011;2927;49.366;8.530;2023-08-20T08:48:39;4.63;;;3.38;;
5801;SDS011;2927;49.366;8.530;2023-08-20T08:51:06;3.90;;;3.80;;
5801;SDS011;2927;49.366;8.530;2023-08-20T08:53:32;4.00;;;3.80;;
5801;SDS011;2927;49.366;8.530;2023-08-20T08:55:58;4.70;;;3.70;;
5801;SDS011;2927;49.366;8.530;2023-08-20T08:58:25;4.10;;;3.58;;
5801;SDS011;2927;49.366;8.530;2023-08-20T09:00:50;3.30;;;3.20;;
5801;SDS011;2927;49.366;8.530;2023-08-20T09:03:16;3.88;;;3.67;;
5801;SDS011;2927;49.366;8.530;2023-08-20T09:05:45;3.47;;;3.25;;
5801;SDS011;2927;49.366;8.530;2023-08-20T09:08:18;3.30;;;3.25;;
5801;SDS011;2927;49.366;8.530;2023-08-20T09:10:50;4.25;;;4.05;;
5801;SDS011;2927;49.366;8.530;2023-08-20T09:13:17;3.78;;;3.58;;
5801;SDS011;2927;49.366;8.530;2023-08-20T09:15:50;3.60;;;3.50;;
5801;SDS011;2927;49.366;8.530;2023-08-20T09:18:18;3.63;;;3.47;;
5801;SDS011;2927;49.366;8.530;2023-08-20T09:20:44;3.38;;;3.28;;
5801;SDS011;2927;49.366;8.530;2023-08-20T09:23:13;4.00;;;3.72;;
5801;SDS011;2927;49.366;8.530;2023-08-20T09:25:39;3.22;;;3.13;;
5801;SDS011;2927;49.366;8.530;2023-08-20T09:28:04;3.63;;;3.53;;
5801;SDS011;2927;49.366;8.530;2023-08-20T09:30:30;3.60;;;3.40;;
5801;SDS011;2927;49.366;8.530;2023-08-20T09:33:03;4.05;;;3.65;;
5801;SDS011;2927;49.366;8.530;2023-08-20T09:35:29;3.60;;;3.28;;
5801;SDS011;2927;49.366;8.530;2023-08-20T09:37:58;3.67;;;3.47;;
5801;SDS011;2927;49.366;8.530;2023-08-20T09:40:25;4.40;;;3.25;;
5801;SDS011;2927;49.366;8.530;2023-08-20T09:42:51;3.58;;;3.47;;
5801;SDS011;2927;49.366;8.530;2023-08-20T09:45:18;3.65;;;3.45;;
5801;SDS011;2927;49.366;8.530;2023-08-20T09:47:45;3.20;;;3.10;;
5801;SDS011;2927;49.366;8.530;2023-08-20T09:50:15;3.38;;;3.17;;
5801;SDS011;2927;49.366;8.530;2023-08-20T09:53:01;3.30;;;3.20;;
5801;SDS011;2927;49.366;8.530;2023-08-20T09:55:35;3.17;;;3.08;;
5801;SDS011;2927;49.366;8.530;2023-08-20T09:58:04;4.85;;;4.55;;
5801;SDS011;2927;49.366;8.530;2023-08-20T10:00:31;3.28;;;3.17;;
5801;SDS011;2927;49.366;8.530;2023-08-20T10:02:58;3.75;;;3.65;;
5801;SDS011;2927;49.366;8.530;2023-08-20T10:05:24;3.28;;;3.17;;
5801;SDS011;2927;49.366;8.530;2023-08-20T10:07:50;3.63;;;3.42;;
5801;SDS011;2927;49.366;8.530;2023-08-20T10:10:17;4.28;;;3.88;;
5801;SDS011;2927;49.366;8.530;2023-08-20T10:12:43;3.08;;;3.03;;
5801;SDS011;2927;49.366;8.530;2023-08-20T10:15:10;4.00;;;3.72;;
5801;SDS011;2927;49.366;8.530;2023-08-20T10:17:38;4.07;;;3.88;;
5801;SDS011;2927;49.366;8.530;2023-08-20T10:20:06;2.95;;;2.85;;
5801;SDS011;2927;49.366;8.530;2023-08-20T10:22:34;3.55;;;3.25;;
5801;SDS011;2927;49.366;8.530;2023-08-20T10:25:07;3.85;;;3.65;;
5801;SDS011;2927;49.366;8.530;2023-08-20T10:27:35;3.42;;;3.13;;
5801;SDS011;2927;49.366;8.530;2023-08-20T10:30:07;3.53;;;3.28;;
5801;SDS011;2927;49.366;8.530;2023-08-20T10:32:50;4.13;;;3.90;;
5801;SDS011;2927;49.366;8.530;2023-08-20T10:35:18;4.22;;;3.97;;
5801;SDS011;2927;49.366;8.530;2023-08-20T10:38:11;4.70;;;4.15;;
5801;SDS011;2927;49.366;8.530;2023-08-20T10:40:49;3.65;;;3.45;;
5801;SDS011;2927;49.366;8.530;2023-08-20T10:46:03;4.50;;;4.20;;
5801;SDS011;2927;49.366;8.530;2023-08-20T10:48:30;4.57;;;4.18;;
5801;SDS011;2927;49.366;8.530;2023-08-20T10:50:58;5.30;;;4.90;;
5801;SDS011;2927;49.366;8.530;2023-08-20T10:53:31;4.40;;;4.10;;
5801;SDS011;2927;49.366;8.530;2023-08-20T10:56:06;4.55;;;3.55;;
5801;SDS011;2927;49.366;8.530;2023-08-20T10:58:33;7.90;;;4.55;;
5801;SDS011;2927;49.366;8.530;2023-08-20T11:03:47;4.00;;;3.70;;
5801;SDS011;2927;49.366;8.530;2023-08-20T11:06:14;9.80;;;4.55;;
5801;SDS011;2927;49.366;8.530;2023-08-20T11:08:40;4.53;;;4.07;;
5801;SDS011;2927;49.366;8.530;2023-08-20T11:11:07;5.25;;;4.55;;
5801;SDS011;2927;49.366;8.530;2023-08-20T11:13:34;4.93;;;4.53;;
5801;SDS011;2927;49.366;8.530;2023-08-20T11:16:03;4.72;;;4.18;;
5801;SDS011;2927;49.366;8.530;2023-08-20T11:18:33;4.75;;;4.35;;
5801;SDS011;2927;49.366;8.530;2023-08-20T11:20:59;4.03;;;3.63;;
5801;SDS011;2927;49.366;8.530;2023-08-20T11:23:25;5.68;;;3.67;;
5801;SDS011;2927;49.366;8.530;2023-08-20T11:25:50;4.57;;;4.25;;
5801;SDS011;2927;49.366;8.530;2023-08-20T11:28:16;4.68;;;4.28;;
5801;SDS011;2927;49.366;8.530;2023-08-20T11:30:42;5.03;;;4.20;;
5801;SDS011;2927;49.366;8.530;2023-08-20T11:33:08;4.00;;;3.60;;
5801;SDS011;2927;49.366;8.530;2023-08-20T11:35:34;4.32;;;3.92;;
5801;SDS011;2927;49.366;8.530;2023-08-20T11:38:00;4.65;;;3.58;;
5801;SDS011;2927;49.366;8.530;2023-08-20T11:40:28;4.97;;;4.22;;
5801;SDS011;2927;49.366;8.530;2023-08-20T11:42:54;4.90;;;4.50;;
5801;SDS011;2927;49.366;8.530;2023-08-20T11:45:20;4.40;;;4.00;;
5801;SDS011;2927;49.366;8.530;2023-08-20T11:47:45;3.70;;;3.40;;
5801;SDS011;2927;49.366;8.530;2023-08-20T11:50:11;4.45;;;3.83;;
5801;SDS011;2927;49.366;8.530;2023-08-20T11:52:36;3.47;;;3.28;;
5801;SDS011;2927;49.366;8.530;2023-08-20T11:55:04;4.85;;;4.18;;
5801;SDS011;2927;49.366;8.530;2023-08-20T11:57:31;3.63;;;2.97;;
5801;SDS011;2927;49.366;8.530;2023-08-20T12:00:01;4.05;;;3.85;;
5801;SDS011;2927;49.366;8.530;2023-08-20T12:02:36;3.47;;;3.17;;
5801;SDS011;2927;49.366;8.530;2023-08-20T12:05:01;5.30;;;3.72;;
5801;SDS011;2927;49.366;8.530;2023-08-20T12:07:28;3.97;;;3.70;;
5801;SDS011;2927;49.366;8.530;2023-08-20T12:09:54;4.05;;;3.65;;
5801;SDS011;2927;49.366;8.530;2023-08-20T12:12:20;4.20;;;3.58;;
5801;SDS011;2927;49.366;8.530;2023-08-20T12:14:46;3.70;;;3.40;;
5801;SDS011;2927;49.366;8.530;2023-08-20T12:17:12;3.55;;;3.35;;
5801;SDS011;2927;49.366;8.530;2023-08-20T12:19:41;5.07;;;3.70;;
5801;SDS011;2927;49.366;8.530;2023-08-20T12:22:07;4.20;;;3.72;;
5801;SDS011;2927;49.366;8.530;2023-08-20T12:24:33;3.88;;;3.58;;
5801;SDS011;2927;49.366;8.530;2023-08-20T12:26:59;6.25;;;3.47;;
5801;SDS011;2927;49.366;8.530;2023-08-20T12:29:24;3.40;;;3.10;;
5801;SDS011;2927;49.366;8.530;2023-08-20T12:31:50;3.25;;;3.05;;
5801;SDS011;2927;49.366;8.530;2023-08-20T12:34:15;4.15;;;3.55;;
5801;SDS011;2927;49.366;8.530;2023-08-20T12:36:41;2.80;;;2.58;;
5801;SDS011;2927;49.366;8.530;2023-08-20T12:39:06;5.68;;;3.30;;
5801;SDS011;2927;49.366;8.530;2023-08-20T12:41:32;7.07;;;3.53;;
5801;SDS011;2927;49.366;8.530;2023-08-20T12:44:00;3.42;;;3.13;;
5801;SDS011;2927;49.366;8.530;2023-08-20T12:46:25;3.55;;;3.28;;
5801;SDS011;2927;49.366;8.530;2023-08-20T12:48:51;4.85;;;3.65;;
5801;SDS011;2927;49.366;8.530;2023-08-20T12:51:17;7.72;;;3.30;;
5801;SDS011;2927;49.366;8.530;2023-08-20T12:53:43;3.95;;;3.60;;
5801;SDS011;2927;49.366;8.530;2023-08-20T12:56:08;3.15;;;2.88;;
5801;SDS011;2927;49.366;8.530;2023-08-20T12:58:34;11.73;;;3.13;;
5801;SDS011;2927;49.366;8.530;2023-08-20T13:01:00;3.08;;;2.92;;
5801;SDS011;2927;49.366;8.530;2023-08-20T13:03:26;4.80;;;3.58;;
5801;SDS011;2927;49.366;8.530;2023-08-20T13:05:52;4.22;;;3.58;;
5801;SDS011;2927;49.366;8.530;2023-08-20T13:08:18;3.25;;;3.00;;
5801;SDS011;2927;49.366;8.530;2023-08-20T13:10:47;3.97;;;3.67;;
5801;SDS011;2927;49.366;8.530;2023-08-20T13:13:18;3.78;;;3.45;;
5801;SDS011;2927;49.366;8.530;2023-08-20T13:15:46;3.50;;;3.20;;
5801;SDS011;2927;49.366;8.530;2023-08-20T13:18:13;4.68;;;3.28;;
5801;SDS011;2927;49.366;8.530;2023-08-20T13:20:39;4.72;;;3.60;;
5801;SDS011;2927;49.366;8.530;2023-08-20T13:23:05;5.45;;;3.65;;
5801;SDS011;2927;49.366;8.530;2023-08-20T13:25:30;3.80;;;3.50;;
5801;SDS011;2927;49.366;8.530;2023-08-20T13:27:56;6.47;;;4.20;;
5801;SDS011;2927;49.366;8.530;2023-08-20T13:30:21;3.20;;;3.00;;
5801;SDS011;2927;49.366;8.530;2023-08-20T13:32:47;4.07;;;3.78;;
5801;SDS011;2927;49.366;8.530;2023-08-20T13:35:14;4.32;;;3.70;;
5801;SDS011;2927;49.366;8.530;2023-08-20T13:37:40;4.20;;;3.85;;
5801;SDS011;2927;49.366;8.530;2023-08-20T13:40:06;3.92;;;3.63;;
5801;SDS011;2927;49.366;8.530;2023-08-20T13:42:34;4.38;;;3.95;;
5801;SDS011;2927;49.366;8.530;2023-08-20T13:44:59;4.65;;;4.20;;
5801;SDS011;2927;49.366;8.530;2023-08-20T13:47:25;5.63;;;4.45;;
5801;SDS011;2927;49.366;8.530;2023-08-20T13:49:51;4.47;;;4.13;;
5801;SDS011;2927;49.366;8.530;2023-08-20T13:52:16;5.75;;;4.07;;
5801;SDS011;2927;49.366;8.530;2023-08-20T13:54:42;4.03;;;3.65;;
5801;SDS011;2927;49.366;8.530;2023-08-20T13:57:08;4.07;;;3.70;;
5801;SDS011;2927;49.366;8.530;2023-08-20T13:59:34;4.95;;;3.78;;
5801;SDS011;2927;49.366;8.530;2023-08-20T14:01:59;5.20;;;4.80;;
5801;SDS011;2927;49.366;8.530;2023-08-20T14:04:25;4.30;;;4.00;;
5801;SDS011;2927;49.366;8.530;2023-08-20T14:06:51;4.35;;;3.95;;
5801;SDS011;2927;49.366;8.530;2023-08-20T14:09:16;4.10;;;3.90;;
5801;SDS011;2927;49.366;8.530;2023-08-20T14:11:43;4.88;;;3.85;;
5801;SDS011;2927;49.366;8.530;2023-08-20T14:14:09;3.58;;;3.38;;
5801;SDS011;2927;49.366;8.530;2023-08-20T14:16:35;6.45;;;4.25;;
5801;SDS011;2927;49.366;8.530;2023-08-20T14:19:00;3.85;;;3.65;;
5801;SDS011;2927;49.366;8.530;2023-08-20T14:21:26;5.97;;;4.32;;
5801;SDS011;2927;49.366;8.530;2023-08-20T14:23:52;4.47;;;3.75;;
5801;SDS011;2927;49.366;8.530;2023-08-20T14:26:17;3.63;;;3.25;;
5801;SDS011;2927;49.366;8.530;2023-08-20T14:28:43;4.88;;;4.03;;
5801;SDS011;2927;49.366;8.530;2023-08-20T14:31:08;4.07;;;3.58;;
5801;SDS011;2927;49.366;8.530;2023-08-20T14:33:34;3.95;;;3.65;;
5801;SDS011;2927;49.366;8.530;2023-08-20T14:36:00;3.10;;;3.00;;
5801;SDS011;2927;49.366;8.530;2023-08-20T14:38:27;4.78;;;4.18;;
5801;SDS011;2927;49.366;8.530;2023-08-20T14:40:54;3.97;;;3.67;;
5801;SDS011;2927;49.366;8.530;2023-08-20T14:43:23;3.90;;;3.50;;
5801;SDS011;2927;49.366;8.530;2023-08-20T14:45:49;4.25;;;3.90;;
5801;SDS011;2927;49.366;8.530;2023-08-20T14:48:14;3.65;;;3.35;;
5801;SDS011;2927;49.366;8.530;2023-08-20T14:50:40;4.80;;;3.42;;
5801;SDS011;2927;49.366;8.530;2023-08-20T14:53:05;4.50;;;3.30;;
5801;SDS011;2927;49.366;8.530;2023-08-20T14:55:31;3.35;;;3.05;;
5801;SDS011;2927;49.366;8.530;2023-08-20T14:57:56;4.80;;;3.92;;
5801;SDS011;2927;49.366;8.530;2023-08-20T15:00:22;5.13;;;3.35;;
5801;SDS011;2927;49.366;8.530;2023-08-20T15:02:48;4.55;;;3.58;;
5801;SDS011;2927;49.366;8.530;2023-08-20T15:05:14;5.50;;;4.22;;
5801;SDS011;2927;49.366;8.530;2023-08-20T15:07:40;3.58;;;3.28;;
5801;SDS011;2927;49.366;8.530;2023-08-20T15:10:05;3.45;;;3.25;;
5801;SDS011;2927;49.366;8.530;2023-08-20T15:12:35;4.03;;;3.63;;
5801;SDS011;2927;49.366;8.530;2023-08-20T15:15:04;3.40;;;2.67;;
5801;SDS011;2927;49.366;8.530;2023-08-20T15:17:31;4.65;;;3.30;;
5801;SDS011;2927;49.366;8.530;2023-08-20T15:19:57;3.20;;;3.00;;
5801;SDS011;2927;49.366;8.530;2023-08-20T15:22:23;3.15;;;2.95;;
5801;SDS011;2927;49.366;8.530;2023-08-20T15:24:49;5.97;;;2.53;;